createdAt,value
2017-11-30T00:00:23.264Z,944.76
2017-11-30T00:01:23.267Z,944.77
2017-11-30T00:02:23.270Z,944.77
2017-11-30T00:03:23.274Z,944.81
2017-11-30T00:04:23.280Z,944.78
2017-11-30T00:05:23.284Z,944.82
2017-11-30T00:06:23.310Z,944.79
2017-11-30T00:07:23.288Z,944.81
2017-11-30T00:08:23.286Z,944.79
2017-11-30T00:09:23.292Z,944.79
2017-11-30T00:10:23.305Z,944.81
2017-11-30T00:11:23.294Z,944.80
2017-11-30T00:12:23.302Z,944.81
2017-11-30T00:13:23.302Z,944.80
2017-11-30T00:14:23.304Z,944.82
2017-11-30T00:15:23.307Z,944.79
2017-11-30T00:16:23.306Z,944.81
2017-11-30T00:17:23.312Z,944.77
2017-11-30T00:18:23.313Z,944.81
2017-11-30T00:19:23.317Z,944.81
2017-11-30T00:20:23.318Z,944.82
2017-11-30T00:21:23.323Z,944.78
2017-11-30T00:22:23.325Z,944.77
2017-11-30T00:23:23.327Z,944.78
2017-11-30T00:24:23.330Z,944.80
2017-11-30T00:25:23.333Z,944.79
2017-11-30T00:26:23.351Z,944.85
2017-11-30T00:27:23.338Z,944.81
2017-11-30T00:28:23.340Z,944.82
2017-11-30T00:29:23.343Z,944.82
2017-11-30T00:30:23.346Z,944.82
2017-11-30T00:31:23.350Z,944.79
2017-11-30T00:32:23.351Z,944.82
2017-11-30T00:33:23.355Z,944.81
2017-11-30T00:34:23.356Z,944.84
2017-11-30T00:35:23.366Z,944.79
2017-11-30T00:36:23.362Z,944.78
2017-11-30T00:37:23.365Z,944.81
2017-11-30T00:38:23.375Z,944.74
2017-11-30T00:39:23.376Z,944.79
2017-11-30T00:40:23.374Z,944.79
2017-11-30T00:41:23.381Z,944.78
2017-11-30T00:42:23.378Z,944.82
2017-11-30T00:43:23.381Z,944.80
2017-11-30T00:44:23.384Z,944.84
2017-11-30T00:45:23.384Z,944.83
2017-11-30T00:46:23.398Z,944.81
2017-11-30T00:47:23.392Z,944.80
2017-11-30T00:48:23.398Z,944.79
2017-11-30T00:49:23.402Z,944.80
2017-11-30T00:50:23.398Z,944.82
2017-11-30T00:51:23.407Z,944.79
2017-11-30T00:52:23.403Z,944.78
2017-11-30T00:53:23.408Z,944.80
2017-11-30T00:54:23.409Z,944.77
2017-11-30T00:55:23.412Z,944.80
2017-11-30T00:56:23.414Z,944.78
2017-11-30T00:57:23.422Z,944.79
2017-11-30T00:58:23.421Z,944.81
2017-11-30T00:59:23.424Z,944.82
2017-11-30T01:00:23.426Z,944.76
2017-11-30T01:01:23.425Z,944.74
2017-11-30T01:02:23.430Z,944.79
2017-11-30T01:03:23.434Z,944.79
2017-11-30T01:04:23.442Z,944.80
2017-11-30T01:05:23.439Z,944.84
2017-11-30T01:06:23.442Z,944.80
2017-11-30T01:07:23.446Z,944.81
2017-11-30T01:08:23.448Z,944.80
2017-11-30T01:09:23.449Z,944.81
2017-11-30T01:10:23.459Z,944.80
2017-11-30T01:11:23.453Z,944.78
2017-11-30T01:12:23.458Z,944.80
2017-11-30T01:13:23.462Z,944.77
2017-11-30T01:14:23.463Z,944.82
2017-11-30T01:15:23.464Z,944.81
2017-11-30T01:16:23.467Z,944.81
2017-11-30T01:17:23.469Z,944.77
2017-11-30T01:18:23.473Z,944.81
2017-11-30T01:19:23.476Z,944.82
2017-11-30T01:20:23.478Z,944.79
2017-11-30T01:21:23.480Z,944.81
2017-11-30T01:22:23.484Z,944.79
2017-11-30T01:23:23.485Z,944.80
2017-11-30T01:24:23.489Z,944.79
2017-11-30T01:25:23.490Z,944.82
2017-11-30T01:26:23.494Z,944.81
2017-11-30T01:27:23.503Z,944.80
2017-11-30T01:28:23.503Z,944.79
2017-11-30T01:29:23.503Z,944.81
2017-11-30T01:30:23.504Z,944.82
2017-11-30T01:31:23.505Z,944.80
2017-11-30T01:32:23.508Z,944.82
2017-11-30T01:33:23.513Z,944.81
2017-11-30T01:34:23.526Z,944.78
2017-11-30T01:35:23.518Z,944.79
2017-11-30T01:36:23.519Z,944.79
2017-11-30T01:37:23.524Z,944.84
2017-11-30T01:38:23.526Z,944.85
2017-11-30T01:39:23.530Z,944.81
2017-11-30T01:40:23.531Z,944.82
2017-11-30T01:41:23.533Z,944.84
2017-11-30T01:42:23.535Z,944.82
2017-11-30T01:43:23.545Z,944.83
2017-11-30T01:44:23.540Z,944.82
2017-11-30T01:45:23.544Z,944.78
2017-11-30T01:46:23.554Z,944.81
2017-11-30T01:47:23.549Z,944.78
2017-11-30T01:48:23.557Z,944.77
2017-11-30T01:49:23.554Z,944.75
2017-11-30T01:50:23.560Z,944.74
2017-11-30T01:51:23.560Z,944.74
2017-11-30T01:52:23.561Z,944.79
2017-11-30T01:53:23.565Z,944.74
2017-11-30T01:54:23.568Z,944.72
2017-11-30T01:55:23.569Z,944.72
2017-11-30T01:56:23.572Z,944.73
2017-11-30T01:57:23.577Z,944.74
2017-11-30T01:58:23.580Z,944.77
2017-11-30T01:59:23.581Z,944.72
2017-11-30T02:00:23.603Z,944.74
2017-11-30T02:01:23.592Z,944.76
2017-11-30T02:02:23.588Z,944.74
2017-11-30T02:03:23.591Z,944.69
2017-11-30T02:04:23.593Z,944.67
2017-11-30T02:05:23.596Z,944.69
2017-11-30T02:06:23.599Z,944.69
2017-11-30T02:07:23.602Z,944.67
2017-11-30T02:08:23.603Z,944.65
2017-11-30T02:09:23.612Z,944.66
2017-11-30T02:10:23.610Z,944.64
2017-11-30T02:11:23.612Z,944.65
2017-11-30T02:12:23.618Z,944.62
2017-11-30T02:13:23.616Z,944.62
2017-11-30T02:14:23.621Z,944.61
2017-11-30T02:15:23.622Z,944.61
2017-11-30T02:16:23.622Z,944.58
2017-11-30T02:17:23.633Z,944.60
2017-11-30T02:18:23.629Z,944.56
2017-11-30T02:19:23.634Z,944.58
2017-11-30T02:20:23.636Z,944.57
2017-11-30T02:21:23.642Z,944.55
2017-11-30T02:22:23.642Z,944.53
2017-11-30T02:23:23.643Z,944.51
2017-11-30T02:24:23.645Z,944.51
2017-11-30T02:25:23.656Z,944.50
2017-11-30T02:26:23.651Z,944.50
2017-11-30T02:27:23.656Z,944.48
2017-11-30T02:28:23.657Z,944.49
2017-11-30T02:29:23.665Z,944.43
2017-11-30T02:30:23.663Z,944.45
2017-11-30T02:31:23.669Z,944.45
2017-11-30T02:32:23.665Z,944.47
2017-11-30T02:33:23.676Z,944.48
2017-11-30T02:34:23.679Z,944.49
2017-11-30T02:35:23.671Z,944.47
2017-11-30T02:36:23.675Z,944.49
2017-11-30T02:37:23.677Z,944.46
2017-11-30T02:38:23.681Z,944.46
2017-11-30T02:39:23.687Z,944.46
2017-11-30T02:40:23.686Z,944.46
2017-11-30T02:41:23.690Z,944.43
2017-11-30T02:42:23.691Z,944.47
2017-11-30T02:43:23.695Z,944.49
2017-11-30T02:44:23.697Z,944.45
2017-11-30T02:45:23.708Z,944.49
2017-11-30T02:46:23.700Z,944.51
2017-11-30T02:47:23.706Z,944.49
2017-11-30T02:48:23.708Z,944.53
2017-11-30T02:49:23.709Z,944.52
2017-11-30T02:50:23.715Z,944.55
2017-11-30T02:51:23.740Z,944.57
2017-11-30T02:52:23.717Z,944.59
2017-11-30T02:53:23.720Z,944.59
2017-11-30T02:54:23.722Z,944.57
2017-11-30T02:55:23.725Z,944.60
2017-11-30T02:56:23.731Z,944.61
2017-11-30T02:57:23.745Z,944.61
2017-11-30T02:58:23.735Z,944.62
2017-11-30T02:59:23.736Z,944.65
2017-11-30T03:00:23.738Z,944.61
2017-11-30T03:01:23.739Z,944.62
2017-11-30T03:02:23.743Z,944.59
2017-11-30T03:03:23.748Z,944.59
2017-11-30T03:04:23.747Z,944.57
2017-11-30T03:05:23.749Z,944.54
2017-11-30T03:06:23.754Z,944.57
2017-11-30T03:07:23.756Z,944.53
2017-11-30T03:08:23.758Z,944.50
2017-11-30T03:09:23.788Z,944.50
2017-11-30T03:10:23.766Z,944.48
2017-11-30T03:11:23.765Z,944.43
2017-11-30T03:12:23.768Z,944.44
2017-11-30T03:13:23.772Z,944.42
2017-11-30T03:14:23.774Z,944.42
2017-11-30T03:15:23.783Z,944.44
2017-11-30T03:16:23.779Z,944.47
2017-11-30T03:17:23.781Z,944.46
2017-11-30T03:18:23.785Z,944.49
2017-11-30T03:19:23.787Z,944.46
2017-11-30T03:20:23.794Z,944.46
2017-11-30T03:21:23.793Z,944.47
2017-11-30T03:22:23.795Z,944.44
2017-11-30T03:23:23.798Z,944.45
2017-11-30T03:24:23.805Z,944.44
2017-11-30T03:25:23.803Z,944.45
2017-11-30T03:26:23.811Z,944.46
2017-11-30T03:27:23.807Z,944.46
2017-11-30T03:28:23.810Z,944.46
2017-11-30T03:29:23.813Z,944.46
2017-11-30T03:30:23.819Z,944.48
2017-11-30T03:31:23.822Z,944.44
2017-11-30T03:32:23.821Z,944.47
2017-11-30T03:33:23.832Z,944.40
2017-11-30T03:34:23.828Z,944.39
2017-11-30T03:35:23.829Z,944.41
2017-11-30T03:36:23.832Z,944.43
2017-11-30T03:37:23.835Z,944.43
2017-11-30T03:38:23.837Z,944.47
2017-11-30T03:39:23.843Z,944.44
2017-11-30T03:40:23.840Z,944.45
2017-11-30T03:41:23.846Z,944.49
2017-11-30T03:42:23.856Z,944.50
2017-11-30T03:43:23.851Z,944.52
2017-11-30T03:44:23.853Z,944.52
2017-11-30T03:45:23.855Z,944.56
2017-11-30T03:46:23.858Z,944.59
2017-11-30T03:47:23.862Z,944.59
2017-11-30T03:48:23.870Z,944.57
2017-11-30T03:49:23.865Z,944.53
2017-11-30T03:50:23.871Z,944.55
2017-11-30T03:51:23.872Z,944.56
2017-11-30T03:52:23.875Z,944.55
2017-11-30T03:53:23.877Z,944.58
2017-11-30T03:54:23.880Z,944.58
2017-11-30T03:55:23.884Z,944.57
2017-11-30T03:56:23.894Z,944.60
2017-11-30T03:57:23.887Z,944.56
2017-11-30T03:58:23.891Z,944.58
2017-11-30T03:59:23.893Z,944.60
2017-11-30T04:00:23.896Z,944.58
2017-11-30T04:01:23.898Z,944.57
2017-11-30T04:02:23.901Z,944.56
2017-11-30T04:03:23.905Z,944.57
2017-11-30T04:04:23.906Z,944.55
2017-11-30T04:05:23.916Z,944.54
2017-11-30T04:06:23.913Z,944.54
2017-11-30T04:07:23.917Z,944.50
2017-11-30T04:08:23.918Z,944.53
2017-11-30T04:09:23.921Z,944.52
2017-11-30T04:10:23.921Z,944.51
2017-11-30T04:11:23.936Z,944.52
2017-11-30T04:12:23.926Z,944.52
2017-11-30T04:13:23.930Z,944.49
2017-11-30T04:14:23.933Z,944.49
2017-11-30T04:15:23.939Z,944.50
2017-11-30T04:16:23.979Z,944.53
2017-11-30T04:17:23.939Z,944.51
2017-11-30T04:18:23.942Z,944.52
2017-11-30T04:19:23.945Z,944.50
2017-11-30T04:20:23.949Z,944.50
2017-11-30T04:21:23.951Z,944.50
2017-11-30T04:22:23.964Z,944.51
2017-11-30T04:23:23.955Z,944.52
2017-11-30T04:24:23.958Z,944.51
2017-11-30T04:25:23.960Z,944.52
2017-11-30T04:26:23.964Z,944.56
2017-11-30T04:27:23.974Z,944.54
2017-11-30T04:28:23.967Z,944.57
2017-11-30T04:29:23.968Z,944.54
2017-11-30T04:30:23.973Z,944.55
2017-11-30T04:31:23.988Z,944.51
2017-11-30T04:32:23.979Z,944.54
2017-11-30T04:33:23.980Z,944.54
2017-11-30T04:34:23.990Z,944.58
2017-11-30T04:35:23.989Z,944.58
2017-11-30T04:36:23.997Z,944.57
2017-11-30T04:37:23.994Z,944.58
2017-11-30T04:38:24.017Z,944.59
2017-11-30T04:39:24.001Z,944.61
2017-11-30T04:40:23.999Z,944.59
2017-11-30T04:41:24.001Z,944.63
2017-11-30T04:42:24.005Z,944.63
2017-11-30T04:43:24.007Z,944.60
2017-11-30T04:44:24.010Z,944.62
2017-11-30T04:45:24.016Z,944.65
2017-11-30T04:46:24.013Z,944.64
2017-11-30T04:47:24.018Z,944.65
2017-11-30T04:48:24.023Z,944.71
2017-11-30T04:49:24.022Z,944.65
2017-11-30T04:50:24.025Z,944.65
2017-11-30T04:51:24.028Z,944.68
2017-11-30T04:52:24.044Z,944.69
2017-11-30T04:53:24.033Z,944.69
2017-11-30T04:54:24.036Z,944.71
2017-11-30T04:55:24.038Z,944.69
2017-11-30T04:56:24.038Z,944.71
2017-11-30T04:57:24.051Z,944.70
2017-11-30T04:58:24.045Z,944.71
2017-11-30T04:59:24.048Z,944.70
2017-11-30T05:00:24.050Z,944.72
2017-11-30T05:01:24.054Z,944.76
2017-11-30T05:02:24.057Z,944.77
2017-11-30T05:03:24.059Z,944.79
2017-11-30T05:04:24.060Z,944.81
2017-11-30T05:05:24.066Z,944.76
2017-11-30T05:06:24.070Z,944.77
2017-11-30T05:07:24.074Z,944.79
2017-11-30T05:08:24.072Z,944.77
2017-11-30T05:09:24.075Z,944.81
2017-11-30T05:10:24.076Z,944.79
2017-11-30T05:11:24.080Z,944.79
2017-11-30T05:12:24.081Z,944.77
2017-11-30T05:13:24.084Z,944.80
2017-11-30T05:14:24.088Z,944.79
2017-11-30T05:15:24.090Z,944.79
2017-11-30T05:16:24.094Z,944.77
2017-11-30T05:17:24.094Z,944.75
2017-11-30T05:18:24.100Z,944.77
2017-11-30T05:19:24.100Z,944.73
2017-11-30T05:20:24.101Z,944.77
2017-11-30T05:21:24.105Z,944.75
2017-11-30T05:22:24.106Z,944.74
2017-11-30T05:23:24.111Z,944.75
2017-11-30T05:24:24.122Z,944.77
2017-11-30T05:25:24.115Z,944.73
2017-11-30T05:26:24.123Z,944.79
2017-11-30T05:27:24.121Z,944.76
2017-11-30T05:28:24.123Z,944.77
2017-11-30T05:29:24.126Z,944.78
2017-11-30T05:30:24.131Z,944.76
2017-11-30T05:31:24.131Z,944.80
2017-11-30T05:32:24.136Z,944.81
2017-11-30T05:33:24.137Z,944.82
2017-11-30T05:34:24.140Z,944.81
2017-11-30T05:35:24.144Z,944.79
2017-11-30T05:36:24.145Z,944.78
2017-11-30T05:37:24.157Z,944.74
2017-11-30T05:38:24.150Z,944.70
2017-11-30T05:39:24.149Z,944.72
2017-11-30T05:40:24.155Z,944.71
2017-11-30T05:41:24.158Z,944.67
2017-11-30T05:42:24.161Z,944.69
2017-11-30T05:43:24.165Z,944.66
2017-11-30T05:44:24.166Z,944.71
2017-11-30T05:45:24.170Z,944.74
2017-11-30T05:46:24.172Z,944.73
2017-11-30T05:47:24.173Z,944.79
2017-11-30T05:48:24.177Z,944.75
2017-11-30T05:49:24.179Z,944.72
2017-11-30T05:50:24.183Z,944.71
2017-11-30T05:51:24.185Z,944.73
2017-11-30T05:52:24.187Z,944.73
2017-11-30T05:53:24.190Z,944.69
2017-11-30T05:54:24.197Z,944.71
2017-11-30T05:55:24.196Z,944.78
2017-11-30T05:56:24.197Z,944.72
2017-11-30T05:57:24.200Z,944.73
2017-11-30T05:58:24.204Z,944.70
2017-11-30T05:59:24.208Z,944.62
2017-11-30T06:00:24.211Z,944.63
2017-11-30T06:01:24.210Z,944.67
2017-11-30T06:02:24.216Z,944.65
2017-11-30T06:03:24.218Z,944.60
2017-11-30T06:04:24.220Z,944.63
2017-11-30T06:05:24.223Z,944.65
2017-11-30T06:06:24.223Z,944.62
2017-11-30T06:07:24.229Z,944.60
2017-11-30T06:08:24.231Z,944.62
2017-11-30T06:09:24.242Z,944.57
2017-11-30T06:10:24.236Z,944.57
2017-11-30T06:11:24.240Z,944.56
2017-11-30T06:12:24.241Z,944.57
2017-11-30T06:13:24.250Z,944.57
2017-11-30T06:14:24.249Z,944.54
2017-11-30T06:15:24.258Z,944.60
2017-11-30T06:16:24.264Z,944.62
2017-11-30T06:17:24.255Z,944.61
2017-11-30T06:18:24.258Z,944.60
2017-11-30T06:19:24.261Z,944.59
2017-11-30T06:20:24.263Z,944.59
2017-11-30T06:21:24.275Z,944.54
2017-11-30T06:22:24.271Z,944.49
2017-11-30T06:23:24.272Z,944.51
2017-11-30T06:24:24.275Z,944.48
2017-11-30T06:25:24.277Z,944.43
2017-11-30T06:26:24.287Z,944.51
2017-11-30T06:27:24.283Z,944.51
2017-11-30T06:28:24.283Z,944.51
2017-11-30T06:29:24.287Z,944.49
2017-11-30T06:30:24.324Z,944.48
2017-11-30T06:31:24.293Z,944.47
2017-11-30T06:32:24.296Z,944.49
2017-11-30T06:33:24.298Z,944.51
2017-11-30T06:34:24.302Z,944.52
2017-11-30T06:35:24.304Z,944.50
2017-11-30T06:36:24.305Z,944.50
2017-11-30T06:37:24.310Z,944.51
2017-11-30T06:38:24.312Z,944.49
2017-11-30T06:39:24.316Z,944.51
2017-11-30T06:40:24.317Z,944.50
2017-11-30T06:41:24.320Z,944.53
2017-11-30T06:42:24.325Z,944.54
2017-11-30T06:43:24.324Z,944.56
2017-11-30T06:44:24.334Z,944.55
2017-11-30T06:45:24.332Z,944.56
2017-11-30T06:46:24.337Z,944.52
2017-11-30T06:47:24.384Z,944.55
2017-11-30T06:48:24.339Z,944.56
2017-11-30T06:49:24.346Z,944.56
2017-11-30T06:50:24.345Z,944.56
2017-11-30T06:51:24.349Z,944.59
2017-11-30T06:52:24.349Z,944.60
2017-11-30T06:53:24.356Z,944.64
2017-11-30T06:54:24.355Z,944.64
2017-11-30T06:55:24.359Z,944.67
2017-11-30T06:56:24.367Z,944.66
2017-11-30T06:57:24.367Z,944.65
2017-11-30T06:58:24.367Z,944.66
2017-11-30T06:59:24.370Z,944.68
2017-11-30T07:00:24.372Z,944.64
2017-11-30T07:01:24.376Z,944.63
2017-11-30T07:02:24.377Z,944.65
2017-11-30T07:03:24.382Z,944.65
2017-11-30T07:04:24.383Z,944.68
2017-11-30T07:05:24.388Z,944.68
2017-11-30T07:06:24.389Z,944.67
2017-11-30T07:07:24.395Z,944.68
2017-11-30T07:08:24.393Z,944.67
2017-11-30T07:09:24.397Z,944.67
2017-11-30T07:10:24.401Z,944.69
2017-11-30T07:11:24.402Z,944.70
2017-11-30T07:12:24.404Z,944.69
2017-11-30T07:13:24.407Z,944.67
2017-11-30T07:14:24.410Z,944.65
2017-11-30T07:15:24.414Z,944.68
2017-11-30T07:16:24.413Z,944.66
2017-11-30T07:17:24.419Z,944.64
2017-11-30T07:18:24.423Z,944.67
2017-11-30T07:19:24.424Z,944.65
2017-11-30T07:20:24.424Z,944.67
2017-11-30T07:21:24.428Z,944.68
2017-11-30T07:22:24.436Z,944.68
2017-11-30T07:23:24.435Z,944.68
2017-11-30T07:24:24.437Z,944.71
2017-11-30T07:25:24.437Z,944.69
2017-11-30T07:26:24.463Z,944.71
2017-11-30T07:27:24.449Z,944.70
2017-11-30T07:28:24.447Z,944.72
2017-11-30T07:29:24.457Z,944.66
2017-11-30T07:30:24.453Z,944.67
2017-11-30T07:31:24.456Z,944.67
2017-11-30T07:32:24.456Z,944.69
2017-11-30T07:33:24.465Z,944.64
2017-11-30T07:34:24.462Z,944.69
2017-11-30T07:35:24.463Z,944.72
2017-11-30T07:36:24.467Z,944.77
2017-11-30T07:37:24.469Z,944.77
2017-11-30T07:38:24.469Z,944.74
2017-11-30T07:39:24.475Z,944.78
2017-11-30T07:40:24.474Z,944.75
2017-11-30T07:41:24.478Z,944.83
2017-11-30T07:42:24.482Z,944.84
2017-11-30T07:43:24.484Z,944.87
2017-11-30T07:44:24.484Z,944.84
2017-11-30T07:45:24.486Z,944.89
2017-11-30T07:46:24.489Z,944.90
2017-11-30T07:47:24.493Z,944.88
2017-11-30T07:48:24.492Z,944.88
2017-11-30T07:49:24.504Z,944.94
2017-11-30T07:50:24.499Z,944.91
2017-11-30T07:51:24.507Z,944.90
2017-11-30T07:52:24.505Z,944.95
2017-11-30T07:53:24.507Z,944.97
2017-11-30T07:54:24.509Z,945.01
2017-11-30T07:55:24.511Z,944.99
2017-11-30T07:56:24.513Z,945.01
2017-11-30T07:57:24.515Z,945.06
2017-11-30T07:58:24.534Z,945.07
2017-11-30T07:59:24.528Z,945.13
2017-11-30T08:00:24.525Z,945.14
2017-11-30T08:01:24.527Z,945.09
2017-11-30T08:02:24.529Z,945.16
2017-11-30T08:03:24.549Z,945.13
2017-11-30T08:04:24.538Z,945.13
2017-11-30T08:05:24.540Z,945.17
2017-11-30T08:06:24.545Z,945.20
2017-11-30T08:07:24.543Z,945.12
2017-11-30T08:08:24.546Z,945.12
2017-11-30T08:09:24.548Z,945.14
2017-11-30T08:10:24.550Z,945.17
2017-11-30T08:11:24.551Z,945.15
2017-11-30T08:12:24.563Z,945.17
2017-11-30T08:13:24.559Z,945.16
2017-11-30T08:14:24.562Z,945.13
2017-11-30T08:15:24.567Z,945.10
2017-11-30T08:16:24.574Z,945.16
2017-11-30T08:17:24.571Z,945.14
2017-11-30T08:18:24.578Z,945.14
2017-11-30T08:19:24.582Z,945.10
2017-11-30T08:20:24.578Z,945.11
2017-11-30T08:21:24.581Z,945.13
2017-11-30T08:22:24.585Z,945.10
2017-11-30T08:23:24.589Z,945.12
2017-11-30T08:24:24.590Z,945.12
2017-11-30T08:25:24.595Z,945.14
2017-11-30T08:26:24.610Z,945.14
2017-11-30T08:27:24.602Z,945.13
2017-11-30T08:28:24.604Z,945.17
2017-11-30T08:29:24.608Z,945.18
2017-11-30T08:30:24.615Z,945.21
2017-11-30T08:31:24.618Z,945.17
2017-11-30T08:32:24.627Z,945.18
2017-11-30T08:33:24.620Z,945.17
2017-11-30T08:34:24.623Z,945.14
2017-11-30T08:35:24.629Z,945.13
2017-11-30T08:36:24.630Z,945.11
2017-11-30T08:37:24.632Z,945.11
2017-11-30T08:38:24.633Z,945.15
2017-11-30T08:39:24.639Z,945.15
2017-11-30T08:40:24.641Z,945.15
2017-11-30T08:41:24.645Z,945.13
2017-11-30T08:42:24.648Z,945.12
2017-11-30T08:43:24.651Z,945.07
2017-11-30T08:44:24.655Z,945.13
2017-11-30T08:45:24.658Z,945.13
2017-11-30T08:46:24.661Z,945.13
2017-11-30T08:47:24.673Z,945.12
2017-11-30T08:48:24.667Z,945.12
2017-11-30T08:49:24.678Z,945.12
2017-11-30T08:50:24.678Z,945.10
2017-11-30T08:51:24.679Z,945.15
2017-11-30T08:52:24.682Z,945.16
2017-11-30T08:53:24.682Z,945.21
2017-11-30T08:54:24.690Z,945.25
2017-11-30T08:55:24.702Z,945.19
2017-11-30T08:56:24.694Z,945.21
2017-11-30T08:57:24.698Z,945.23
2017-11-30T08:58:24.712Z,945.26
2017-11-30T08:59:24.704Z,945.23
2017-11-30T09:00:24.708Z,945.25
2017-11-30T09:01:24.712Z,945.26
2017-11-30T09:02:24.713Z,945.21
2017-11-30T09:03:24.717Z,945.26
2017-11-30T09:04:24.719Z,945.26
2017-11-30T09:05:24.724Z,945.28
2017-11-30T09:06:24.767Z,945.25
2017-11-30T09:07:24.729Z,945.26
2017-11-30T09:08:24.732Z,945.23
2017-11-30T09:09:24.742Z,945.25
2017-11-30T09:10:24.740Z,945.27
2017-11-30T09:11:24.745Z,945.26
2017-11-30T09:12:24.753Z,945.28
2017-11-30T09:13:24.765Z,945.26
2017-11-30T09:14:24.756Z,945.31
2017-11-30T09:15:24.757Z,945.28
2017-11-30T09:16:24.761Z,945.28
2017-11-30T09:17:24.762Z,945.29
2017-11-30T09:18:24.767Z,945.29
2017-11-30T09:20:24.775Z,945.33
2017-11-30T09:21:24.777Z,945.35
2017-11-30T09:22:24.779Z,945.37
2017-11-30T09:23:24.784Z,945.37
2017-11-30T09:24:24.785Z,945.32
2017-11-30T09:25:24.793Z,945.35
2017-11-30T09:26:24.793Z,945.31
2017-11-30T09:27:24.796Z,945.35
2017-11-30T09:28:24.800Z,945.32
2017-11-30T09:29:24.806Z,945.33
2017-11-30T09:30:24.808Z,945.36
2017-11-30T09:31:24.809Z,945.33
2017-11-30T09:32:24.815Z,945.29
2017-11-30T09:33:24.825Z,945.33
2017-11-30T09:34:24.820Z,945.36
2017-11-30T09:35:24.824Z,945.35
2017-11-30T09:36:24.825Z,945.33
2017-11-30T09:37:24.830Z,945.39
2017-11-30T09:38:24.832Z,945.34
2017-11-30T09:39:24.847Z,945.37
2017-11-30T09:40:24.857Z,945.40
2017-11-30T09:41:24.843Z,945.40
2017-11-30T09:42:24.846Z,945.38
2017-11-30T09:43:24.849Z,945.41
2017-11-30T09:44:24.854Z,945.43
2017-11-30T09:45:24.855Z,945.43
2017-11-30T09:46:24.859Z,945.43
2017-11-30T09:47:24.861Z,945.45
2017-11-30T09:48:24.866Z,945.48
2017-11-30T09:49:24.868Z,945.43
2017-11-30T09:50:24.871Z,945.43
2017-11-30T09:51:24.875Z,945.46
2017-11-30T09:52:24.878Z,945.45
2017-11-30T09:53:24.883Z,945.45
2017-11-30T09:54:24.888Z,945.47
2017-11-30T09:55:24.908Z,945.41
2017-11-30T09:56:24.890Z,945.37
2017-11-30T09:57:24.894Z,945.37
2017-11-30T09:58:24.896Z,945.38
2017-11-30T09:59:24.899Z,945.39
2017-11-30T10:00:24.902Z,945.40
2017-11-30T10:01:24.904Z,945.33
2017-11-30T10:02:24.907Z,945.26
2017-11-30T10:03:24.910Z,945.32
2017-11-30T10:04:24.912Z,945.34
2017-11-30T10:05:24.918Z,945.30
2017-11-30T10:06:24.920Z,945.27
2017-11-30T10:07:24.920Z,945.26
2017-11-30T10:08:24.923Z,945.28
2017-11-30T10:09:24.925Z,945.28
2017-11-30T10:10:24.931Z,945.25
2017-11-30T10:11:24.947Z,945.28
2017-11-30T10:12:24.934Z,945.29
2017-11-30T10:13:24.936Z,945.25
2017-11-30T10:14:24.939Z,945.24
2017-11-30T10:15:24.942Z,945.20
2017-11-30T10:16:24.943Z,945.21
2017-11-30T10:17:24.949Z,945.22
2017-11-30T10:18:24.949Z,945.19
2017-11-30T10:19:24.952Z,945.14
2017-11-30T10:20:24.953Z,945.18
2017-11-30T10:21:24.957Z,945.18
2017-11-30T10:22:24.960Z,945.14
2017-11-30T10:23:24.962Z,945.12
2017-11-30T10:24:24.963Z,945.15
2017-11-30T10:25:24.970Z,945.13
2017-11-30T10:26:24.967Z,945.13
2017-11-30T10:27:24.977Z,945.12
2017-11-30T10:28:24.974Z,945.12
2017-11-30T10:29:24.976Z,945.08
2017-11-30T10:30:24.979Z,945.08
2017-11-30T10:31:24.990Z,945.13
2017-11-30T10:32:24.984Z,945.12
2017-11-30T10:33:24.985Z,945.12
2017-11-30T10:34:24.989Z,945.10
2017-11-30T10:35:24.990Z,945.06
2017-11-30T10:36:24.993Z,945.05
2017-11-30T10:37:24.996Z,945.05
2017-11-30T10:38:24.997Z,945.05
2017-11-30T10:39:25.000Z,945.04
2017-11-30T10:40:25.018Z,945.02
2017-11-30T10:41:25.005Z,945.01
2017-11-30T10:42:25.012Z,945.04
2017-11-30T10:43:25.008Z,945.05
2017-11-30T10:44:25.026Z,945.04
2017-11-30T10:45:25.014Z,945.09
2017-11-30T10:46:25.017Z,945.05
2017-11-30T10:47:25.021Z,945.04
2017-11-30T10:48:25.023Z,945.04
2017-11-30T10:49:25.024Z,945.06
2017-11-30T10:50:25.026Z,945.03
2017-11-30T10:51:25.037Z,945.05
2017-11-30T10:52:25.032Z,944.99
2017-11-30T10:53:25.033Z,945.04
2017-11-30T10:54:25.037Z,945.07
2017-11-30T10:55:25.040Z,945.01
2017-11-30T10:56:25.042Z,945.00
2017-11-30T10:57:25.045Z,944.98
2017-11-30T10:58:25.048Z,945.06
2017-11-30T10:59:25.051Z,945.06
2017-11-30T11:00:25.052Z,945.01
2017-11-30T11:01:25.059Z,944.99
2017-11-30T11:02:25.057Z,945.02
2017-11-30T11:03:25.060Z,945.01
2017-11-30T11:04:25.061Z,945.06
2017-11-30T11:05:25.064Z,945.02
2017-11-30T11:06:25.065Z,945.02
2017-11-30T11:07:25.070Z,945.02
2017-11-30T11:08:25.071Z,945.06
2017-11-30T11:09:25.073Z,945.03
2017-11-30T11:10:25.077Z,945.03
2017-11-30T11:11:25.083Z,945.03
2017-11-30T11:12:25.083Z,945.06
2017-11-30T11:13:25.084Z,945.09
2017-11-30T11:14:25.088Z,945.04
2017-11-30T11:15:25.089Z,945.03
2017-11-30T11:16:25.091Z,945.04
2017-11-30T11:17:25.095Z,945.00
2017-11-30T11:18:25.095Z,945.08
2017-11-30T11:19:25.097Z,944.98
2017-11-30T11:20:25.103Z,944.99
2017-11-30T11:21:25.103Z,945.00
2017-11-30T11:22:25.105Z,944.98
2017-11-30T11:23:25.108Z,944.96
2017-11-30T11:24:25.113Z,945.00
2017-11-30T11:25:25.130Z,944.96
2017-11-30T11:26:25.115Z,945.02
2017-11-30T11:27:25.117Z,944.96
2017-11-30T11:28:25.124Z,944.99
2017-11-30T11:29:25.121Z,944.98
2017-11-30T11:30:25.123Z,945.01
2017-11-30T11:31:25.128Z,945.01
2017-11-30T11:32:25.127Z,945.00
2017-11-30T11:33:25.130Z,944.96
2017-11-30T11:34:25.133Z,944.98
2017-11-30T11:35:25.175Z,944.94
2017-11-30T11:36:25.138Z,944.97
2017-11-30T11:37:25.139Z,944.98
2017-11-30T11:38:25.142Z,945.01
2017-11-30T11:39:25.147Z,944.99
2017-11-30T11:40:25.146Z,944.99
2017-11-30T11:41:25.149Z,945.00
2017-11-30T11:42:25.153Z,945.00
2017-11-30T11:43:25.155Z,945.01
2017-11-30T11:44:25.156Z,945.01
2017-11-30T11:45:25.159Z,945.00
2017-11-30T11:46:25.169Z,944.97
2017-11-30T11:47:25.163Z,944.92
2017-11-30T11:48:25.184Z,944.93
2017-11-30T11:49:25.176Z,944.95
2017-11-30T11:50:25.171Z,944.95
2017-11-30T11:51:25.172Z,944.93
2017-11-30T11:52:25.173Z,944.94
2017-11-30T11:53:25.179Z,944.98
2017-11-30T11:54:25.178Z,944.93
2017-11-30T11:55:25.184Z,944.96
2017-11-30T11:56:25.182Z,944.92
2017-11-30T11:57:25.189Z,944.96
2017-11-30T11:58:25.190Z,944.99
2017-11-30T11:59:25.193Z,944.96
2017-11-30T12:00:25.193Z,944.93
2017-11-30T12:01:25.197Z,944.96
2017-11-30T12:02:25.199Z,944.94
2017-11-30T12:03:25.202Z,944.96
2017-11-30T12:04:25.205Z,944.94
2017-11-30T12:05:25.206Z,944.99
2017-11-30T12:06:25.208Z,944.99
2017-11-30T12:07:25.211Z,945.02
2017-11-30T12:08:25.214Z,945.07
2017-11-30T12:09:25.218Z,945.11
2017-11-30T12:10:25.216Z,945.09
2017-11-30T12:11:25.224Z,945.08
2017-11-30T12:12:25.224Z,945.08
2017-11-30T12:13:25.223Z,945.07
2017-11-30T12:14:25.231Z,945.11
2017-11-30T12:15:25.235Z,945.10
2017-11-30T12:16:25.233Z,945.05
2017-11-30T12:17:25.233Z,945.09
2017-11-30T12:18:25.238Z,945.07
2017-11-30T12:19:25.237Z,945.09
2017-11-30T12:20:25.240Z,945.10
2017-11-30T12:21:25.245Z,945.10
2017-11-30T12:22:25.247Z,945.05
2017-11-30T12:23:25.248Z,945.03
2017-11-30T12:24:25.250Z,945.05
2017-11-30T12:25:25.251Z,945.05
2017-11-30T12:26:25.255Z,945.04
2017-11-30T12:27:25.258Z,945.03
2017-11-30T12:28:25.260Z,945.00
2017-11-30T12:29:25.265Z,945.02